Time;durP1;ratioP1;P1;durP2;ratioP2;P2;SDS_P1;SDS_P2;PMS_P1;PMS_P2;Temp;Humidity;BMP_temperature;BMP_pressure;BME280_temperature;BME280_humidity;BME280_pressure;Samples;Min_cycle;Max_cycle;Signal;HPM_P1;HPM_P2
2022/03/26 00:02:13;;;;;;;117.57;63.13;;;7.10;99.90;;;;;;5071816;28;20044;-61
2022/03/26 00:04:39;;;;;;;115.18;61.00;;;7.10;99.90;;;;;;5072976;28;20101;-61
2022/03/26 00:07:05;;;;;;;114.78;62.83;;;7.20;99.90;;;;;;5073062;28;20043;-61
2022/03/26 00:09:30;;;;;;;125.07;65.57;;;7.10;99.90;;;;;;5071664;28;20040;-61
2022/03/26 00:11:56;;;;;;;145.00;74.03;;;7.10;99.90;;;;;;5072775;28;20036;-62
2022/03/26 00:14:22;;;;;;;139.20;72.63;;;7.20;99.90;;;;;;5071399;28;20544;-62
2022/03/26 00:16:48;;;;;;;135.30;70.90;;;7.30;99.90;;;;;;5072587;28;20497;-62
2022/03/26 00:19:14;;;;;;;147.60;74.88;;;7.30;99.90;;;;;;5072967;28;20123;-61
2022/03/26 00:21:41;;;;;;;144.35;73.68;;;7.40;99.90;;;;;;5072754;28;20040;-61
2022/03/26 00:24:06;;;;;;;140.13;72.70;;;7.30;99.90;;;;;;5072605;28;20474;-61
2022/03/26 00:26:32;;;;;;;140.75;72.05;;;7.20;99.90;;;;;;5072655;28;20120;-61
2022/03/26 00:28:59;;;;;;;142.80;71.85;;;7.20;99.90;;;;;;5072482;28;20096;-62
2022/03/26 00:31:24;;;;;;;137.98;71.68;;;7.10;99.90;;;;;;5072384;28;20482;-61
2022/03/26 00:33:51;;;;;;;142.75;73.47;;;7.10;99.90;;;;;;5072486;28;20036;-61
2022/03/26 00:36:17;;;;;;;137.02;72.90;;;7.10;99.90;;;;;;5072381;28;20045;-62
2022/03/26 00:38:43;;;;;;;140.63;73.85;;;7.00;99.90;;;;;;5072387;28;20502;-61
2022/03/26 00:41:08;;;;;;;135.38;72.60;;;7.10;99.90;;;;;;5072320;28;20041;-62
2022/03/26 00:43:34;;;;;;;135.15;70.28;;;7.10;99.90;;;;;;5072185;28;20540;-62
2022/03/26 00:46:00;;;;;;;126.18;67.80;;;7.00;99.90;;;;;;5072239;28;20063;-62
2022/03/26 00:48:25;;;;;;;130.35;68.15;;;6.90;99.90;;;;;;5072364;28;20033;-62
2022/03/26 00:50:51;;;;;;;122.45;62.70;;;6.90;99.90;;;;;;5071450;28;20063;-62
2022/03/26 00:53:17;;;;;;;128.43;64.95;;;6.80;99.90;;;;;;5072363;28;20544;-62
2022/03/26 00:55:42;;;;;;;122.13;63.90;;;6.80;99.90;;;;;;5072072;28;20041;-62
2022/03/26 00:58:08;;;;;;;120.30;63.53;;;6.70;99.90;;;;;;5072139;28;20058;-62
2022/03/26 01:00:33;;;;;;;120.03;64.28;;;6.70;99.90;;;;;;5071957;28;20090;-62
2022/03/26 01:03:02;;;;;;;127.43;64.15;;;6.70;99.90;;;;;;5071741;28;20036;-62
2022/03/26 01:05:28;;;;;;;119.60;61.08;;;6.70;99.90;;;;;;5072379;28;20040;-61
2022/03/26 01:07:54;;;;;;;110.45;60.17;;;6.70;99.90;;;;;;5071939;28;20036;-62
2022/03/26 01:10:19;;;;;;;106.28;59.60;;;6.60;99.90;;;;;;5071876;28;20047;-62
2022/03/26 01:12:45;;;;;;;116.03;60.67;;;6.40;99.90;;;;;;5070585;28;20121;-62
2022/03/26 01:15:11;;;;;;;101.30;55.55;;;6.30;99.90;;;;;;5071735;28;20040;-62
2022/03/26 01:17:37;;;;;;;115.22;60.88;;;6.30;99.90;;;;;;5071918;28;20040;-62
2022/03/26 01:20:04;;;;;;;109.03;60.80;;;6.20;99.90;;;;;;5071884;28;20041;-62
2022/03/26 01:22:29;;;;;;;111.35;60.17;;;6.20;99.90;;;;;;5071519;28;20036;-62
2022/03/26 01:24:55;;;;;;;120.90;62.70;;;6.20;99.90;;;;;;5071833;28;20036;-62
2022/03/26 01:27:21;;;;;;;116.35;58.80;;;6.20;99.90;;;;;;5071704;28;20033;-62
2022/03/26 01:29:46;;;;;;;119.50;61.38;;;6.30;99.90;;;;;;5071929;28;20411;-62
2022/03/26 01:32:12;;;;;;;115.78;60.63;;;6.30;99.90;;;;;;5071641;28;20040;-62
2022/03/26 01:34:38;;;;;;;117.03;61.00;;;6.20;99.90;;;;;;5070467;28;20044;-61
2022/03/26 01:37:04;;;;;;;114.60;58.92;;;6.30;99.90;;;;;;5071620;28;20041;-62
2022/03/26 01:39:31;;;;;;;116.72;61.70;;;6.30;99.90;;;;;;5071805;28;20036;-62
2022/03/26 01:42:02;;;;;;;118.88;60.65;;;6.30;99.90;;;;;;5071527;28;20124;-62
2022/03/26 01:44:27;;;;;;;107.30;57.80;;;6.20;99.90;;;;;;5071767;28;20035;-61
2022/03/26 01:46:54;;;;;;;111.72;58.70;;;6.10;99.90;;;;;;5071982;28;20040;-61
2022/03/26 01:49:20;;;;;;;122.07;63.85;;;6.20;99.90;;;;;;5070415;28;20246;-62
2022/03/26 01:51:47;;;;;;;133.07;67.85;;;6.20;99.90;;;;;;5070492;28;20392;-61
2022/03/26 01:54:14;;;;;;;127.90;65.55;;;6.20;99.90;;;;;;5071931;28;20375;-61
2022/03/26 01:56:42;;;;;;;140.30;69.70;;;6.10;99.90;;;;;;5071714;28;20040;-61
2022/03/26 01:59:08;;;;;;;138.82;73.38;;;6.10;99.90;;;;;;5071679;28;20090;-61
2022/03/26 02:01:34;;;;;;;131.65;67.07;;;6.10;99.90;;;;;;5071675;28;20378;-61
2022/03/26 02:04:05;;;;;;;155.80;77.55;;;6.10;99.90;;;;;;5075394;28;20035;-61
2022/03/26 02:06:33;;;;;;;160.13;81.07;;;6.00;99.90;;;;;;5075592;28;20052;-61
2022/03/26 02:09:02;;;;;;;148.65;75.68;;;6.00;99.90;;;;;;5075270;28;20032;-61
2022/03/26 02:11:35;;;;;;;159.30;79.05;;;6.10;99.90;;;;;;5075192;28;20087;-61
2022/03/26 02:14:02;;;;;;;152.75;76.97;;;6.10;99.90;;;;;;5075407;28;20074;-61
2022/03/26 02:16:30;;;;;;;153.63;77.40;;;6.10;99.90;;;;;;5075019;28;20193;-61
2022/03/26 02:18:55;;;;;;;137.50;68.35;;;6.00;99.90;;;;;;5075341;28;20043;-61
2022/03/26 02:21:22;;;;;;;130.73;68.50;;;6.10;99.90;;;;;;5074867;28;20041;-62
2022/03/26 02:23:49;;;;;;;120.05;64.38;;;5.90;99.90;;;;;;5075268;28;20048;-61
2022/03/26 02:26:16;;;;;;;119.63;63.60;;;5.90;99.90;;;;;;5074905;28;20036;-61
2022/03/26 02:28:44;;;;;;;104.38;59.65;;;5.80;99.90;;;;;;5074913;28;20044;-61
2022/03/26 02:31:11;;;;;;;97.88;54.35;;;5.80;99.90;;;;;;5073836;28;20084;-61
2022/03/26 02:33:37;;;;;;;95.18;53.65;;;5.80;99.90;;;;;;5075029;28;20048;-61
2022/03/26 02:36:03;;;;;;;88.70;50.95;;;5.70;99.90;;;;;;5074861;28;20070;-61
2022/03/26 02:38:29;;;;;;;105.85;58.10;;;5.50;99.90;;;;;;5074798;28;20040;-62
2022/03/26 02:40:55;;;;;;;102.55;58.78;;;5.60;99.90;;;;;;5074849;28;20037;-61
2022/03/26 02:43:21;;;;;;;99.07;57.45;;;5.70;99.90;;;;;;5074738;28;20040;-62
2022/03/26 02:45:47;;;;;;;97.93;54.53;;;5.70;99.90;;;;;;5074771;28;20032;-61
2022/03/26 02:48:14;;;;;;;92.88;53.67;;;5.70;99.90;;;;;;5074614;28;20478;-61
2022/03/26 02:50:41;;;;;;;86.75;51.33;;;5.70;99.90;;;;;;5074536;28;20121;-61
2022/03/26 02:53:07;;;;;;;77.82;48.35;;;5.60;99.90;;;;;;5074379;28;20486;-61
2022/03/26 02:55:32;;;;;;;71.53;45.67;;;5.60;99.90;;;;;;5074678;28;20114;-62
2022/03/26 02:57:58;;;;;;;79.13;47.55;;;5.50;99.90;;;;;;5074523;28;20406;-62
2022/03/26 03:00:24;;;;;;;78.28;45.92;;;5.40;99.90;;;;;;5074707;28;20386;-62
2022/03/26 03:02:49;;;;;;;101.05;55.17;;;5.50;99.90;;;;;;5074796;28;20429;-61
2022/03/26 03:05:15;;;;;;;88.63;49.30;;;5.30;99.90;;;;;;5074240;28;20448;-61
2022/03/26 03:07:40;;;;;;;94.53;52.83;;;5.30;99.90;;;;;;5072991;28;20041;-61
2022/03/26 03:10:07;;;;;;;95.07;54.53;;;5.40;99.90;;;;;;5074274;28;20032;-62
2022/03/26 03:12:33;;;;;;;95.85;55.40;;;5.50;99.90;;;;;;5074221;28;20047;-61
2022/03/26 03:14:59;;;;;;;120.90;62.75;;;5.40;99.90;;;;;;5073564;28;20094;-61
2022/03/26 03:17:25;;;;;;;97.53;55.53;;;5.50;99.90;;;;;;5074327;28;20033;-61
2022/03/26 03:19:50;;;;;;;93.78;52.95;;;5.40;99.90;;;;;;5073983;28;20045;-61
2022/03/26 03:22:16;;;;;;;80.22;50.15;;;5.40;99.90;;;;;;5073681;28;20430;-61
2022/03/26 03:24:42;;;;;;;90.05;52.85;;;5.40;99.90;;;;;;5072726;28;20047;-61
2022/03/26 03:27:08;;;;;;;94.93;52.60;;;5.40;99.90;;;;;;5074256;28;20438;-61
2022/03/26 03:29:34;;;;;;;84.38;48.63;;;5.30;99.90;;;;;;5073978;28;20064;-61
2022/03/26 03:32:00;;;;;;;80.88;49.25;;;5.30;99.90;;;;;;5073667;28;20106;-61
2022/03/26 03:34:26;;;;;;;77.30;46.28;;;5.20;99.90;;;;;;5073943;28;20050;-61
2022/03/26 03:36:51;;;;;;;78.93;46.08;;;5.20;99.90;;;;;;5074058;28;20454;-61
2022/03/26 03:39:17;;;;;;;66.72;43.13;;;5.10;99.90;;;;;;5073510;28;20040;-61
2022/03/26 03:41:43;;;;;;;72.43;44.05;;;4.90;99.90;;;;;;5073683;28;20394;-61
2022/03/26 03:44:10;;;;;;;74.78;45.70;;;4.80;99.90;;;;;;5073905;28;20048;-61
2022/03/26 03:46:36;;;;;;;77.70;46.83;;;4.80;99.90;;;;;;5073799;28;20550;-61
2022/03/26 03:49:02;;;;;;;79.45;47.45;;;4.80;99.90;;;;;;5073830;28;20143;-62
2022/03/26 03:51:28;;;;;;;80.75;47.97;;;4.80;99.90;;;;;;5073548;28;20064;-61
2022/03/26 03:53:54;;;;;;;89.93;52.30;;;4.80;99.90;;;;;;5073564;28;20044;-61
2022/03/26 03:56:20;;;;;;;93.45;51.35;;;4.80;99.90;;;;;;5073561;28;20044;-61
2022/03/26 03:58:45;;;;;;;116.63;62.90;;;4.80;99.90;;;;;;5073413;28;20394;-61
2022/03/26 04:01:11;;;;;;;118.43;62.97;;;4.80;99.90;;;;;;5073119;28;20502;-61
2022/03/26 04:03:37;;;;;;;109.10;58.00;;;4.80;99.90;;;;;;5073134;28;20033;-61
2022/03/26 04:06:03;;;;;;;105.97;58.95;;;4.80;99.90;;;;;;5073101;28;20227;-61
2022/03/26 04:08:29;;;;;;;130.73;66.97;;;4.90;99.90;;;;;;5071845;28;20059;-62
2022/03/26 04:10:55;;;;;;;110.47;61.15;;;4.90;99.90;;;;;;5072938;28;20119;-62
2022/03/26 04:13:20;;;;;;;142.43;69.53;;;5.00;99.90;;;;;;5073417;28;20462;-61
2022/03/26 04:15:47;;;;;;;128.50;67.18;;;5.10;99.90;;;;;;5072678;28;20044;-61
2022/03/26 04:18:12;;;;;;;133.60;69.32;;;5.20;99.90;;;;;;5073019;28;20051;-62
2022/03/26 04:20:40;;;;;;;117.82;62.38;;;5.20;99.90;;;;;;5072748;28;20044;-61
2022/03/26 04:23:05;;;;;;;109.80;58.55;;;5.10;99.90;;;;;;5073179;28;20115;-61
2022/03/26 04:25:32;;;;;;;116.45;59.80;;;5.10;99.90;;;;;;5072047;28;20124;-62
2022/03/26 04:27:58;;;;;;;120.78;63.97;;;5.10;99.90;;;;;;5072735;28;20045;-61
2022/03/26 04:30:23;;;;;;;126.20;65.65;;;5.20;99.90;;;;;;5072712;28;20036;-61
2022/03/26 04:32:49;;;;;;;144.02;71.15;;;5.20;99.90;;;;;;5072761;28;20066;-61
2022/03/26 04:35:15;;;;;;;164.18;80.80;;;5.20;99.90;;;;;;5072653;28;20037;-61
2022/03/26 04:37:41;;;;;;;151.88;75.97;;;5.30;99.90;;;;;;5072902;28;20079;-62
2022/03/26 04:40:11;;;;;;;133.90;68.38;;;5.30;99.90;;;;;;5072965;28;20064;-61
2022/03/26 04:42:39;;;;;;;141.05;69.32;;;5.20;99.90;;;;;;5072233;28;20546;-61
2022/03/26 04:45:06;;;;;;;162.88;75.18;;;5.10;99.90;;;;;;5072422;28;20421;-61
2022/03/26 04:47:31;;;;;;;140.23;67.72;;;5.10;99.90;;;;;;5072174;28;20070;-61
2022/03/26 04:49:57;;;;;;;112.50;61.72;;;5.00;99.90;;;;;;5072185;28;20057;-61
2022/03/26 04:52:23;;;;;;;111.68;59.60;;;5.00;99.90;;;;;;5072366;28;20095;-61
2022/03/26 04:54:48;;;;;;;129.05;66.82;;;5.00;99.90;;;;;;5072606;28;20048;-61
2022/03/26 04:57:17;;;;;;;120.43;64.65;;;5.00;99.90;;;;;;5072446;28;20571;-61
2022/03/26 04:59:42;;;;;;;147.03;71.00;;;4.90;99.90;;;;;;5072280;28;20044;-61
2022/03/26 05:02:08;;;;;;;140.52;71.47;;;4.90;99.90;;;;;;5072065;28;20091;-62
2022/03/26 05:04:34;;;;;;;147.80;74.38;;;4.90;99.90;;;;;;5072051;28;20063;-62
2022/03/26 05:06:59;;;;;;;160.95;79.78;;;4.90;99.90;;;;;;5072260;28;20048;-61
2022/03/26 05:09:25;;;;;;;161.20;77.10;;;4.90;99.90;;;;;;5072145;28;20029;-61
2022/03/26 05:11:50;;;;;;;164.82;78.57;;;4.90;99.90;;;;;;5072123;28;20371;-61
2022/03/26 05:14:16;;;;;;;155.73;74.35;;;5.00;99.90;;;;;;5072014;28;20075;-61
2022/03/26 05:16:43;;;;;;;139.85;68.22;;;5.00;99.90;;;;;;5070882;28;20097;-62
2022/03/26 05:19:09;;;;;;;109.50;57.97;;;5.10;99.90;;;;;;5072054;28;20483;-62
2022/03/26 05:21:34;;;;;;;96.03;54.58;;;5.00;99.90;;;;;;5072002;28;20033;-61
2022/03/26 05:24:00;;;;;;;97.68;53.42;;;4.90;99.90;;;;;;5072043;28;20119;-62
2022/03/26 05:26:25;;;;;;;87.20;50.67;;;4.80;99.90;;;;;;5072000;28;20032;-61
2022/03/26 05:28:51;;;;;;;87.13;50.00;;;4.70;99.90;;;;;;5071856;28;20390;-61
2022/03/26 05:31:17;;;;;;;88.25;51.58;;;4.50;99.90;;;;;;5072041;28;20055;-63
2022/03/26 05:33:43;;;;;;;86.05;48.67;;;4.40;99.90;;;;;;5072034;28;20052;-61
2022/03/26 05:36:08;;;;;;;85.45;50.35;;;4.40;99.90;;;;;;5071839;28;20454;-61
2022/03/26 05:38:34;;;;;;;90.50;51.75;;;4.40;99.90;;;;;;5075430;28;20147;-61
2022/03/26 05:41:00;;;;;;;100.95;56.90;;;4.50;99.90;;;;;;5075909;28;20047;-62
2022/03/26 05:43:25;;;;;;;101.25;54.05;;;4.60;99.90;;;;;;5076447;28;20071;-61
2022/03/26 05:45:51;;;;;;;92.82;53.55;;;4.60;99.90;;;;;;5076019;28;20044;-61
2022/03/26 05:48:19;;;;;;;83.13;50.70;;;4.50;99.90;;;;;;5074828;28;20514;-61
2022/03/26 05:50:45;;;;;;;94.32;52.05;;;4.50;99.90;;;;;;5075945;28;20132;-61
2022/03/26 05:53:11;;;;;;;93.50;53.33;;;4.50;99.90;;;;;;5075975;28;20147;-61
2022/03/26 05:55:36;;;;;;;86.15;50.15;;;4.50;99.90;;;;;;5075705;28;20051;-62
2022/03/26 05:58:03;;;;;;;77.88;46.47;;;4.50;99.90;;;;;;5075628;28;20119;-61
2022/03/26 06:00:28;;;;;;;111.38;57.83;;;4.60;99.90;;;;;;5073858;28;20429;-61
2022/03/26 06:02:54;;;;;;;107.57;57.53;;;4.70;99.90;;;;;;5075439;28;20040;-62
2022/03/26 06:05:20;;;;;;;67.15;43.20;;;4.80;99.90;;;;;;5075635;28;20033;-61
2022/03/26 06:07:46;;;;;;;62.72;40.15;;;4.70;99.90;;;;;;5075389;28;20028;-61
2022/03/26 06:10:11;;;;;;;66.32;42.67;;;4.70;99.90;;;;;;5075486;28;20068;-61
2022/03/26 06:12:37;;;;;;;79.45;48.20;;;4.80;99.90;;;;;;5075634;28;20037;-61
2022/03/26 06:15:03;;;;;;;88.40;51.47;;;5.00;99.90;;;;;;5075327;28;20483;-61
2022/03/26 06:17:30;;;;;;;103.63;56.13;;;5.30;99.90;;;;;;5075389;28;20048;-61
2022/03/26 06:19:56;;;;;;;140.18;70.05;;;5.40;99.90;;;;;;5075472;28;20040;-61
2022/03/26 06:22:21;;;;;;;117.78;60.78;;;5.60;99.90;;;;;;5075193;28;20037;-61
2022/03/26 06:24:47;;;;;;;87.05;49.15;;;5.80;99.90;;;;;;5075342;28;20047;-61
2022/03/26 06:27:15;;;;;;;75.57;45.97;;;5.90;99.90;;;;;;5075355;28;20040;-61
2022/03/26 06:29:41;;;;;;;71.75;45.15;;;6.00;99.90;;;;;;5075560;28;20613;-61
2022/03/26 06:32:07;;;;;;;78.75;45.38;;;6.20;99.90;;;;;;5074990;28;20120;-61
2022/03/26 06:34:33;;;;;;;119.10;63.10;;;6.30;99.90;;;;;;5075208;28;20384;-61
2022/03/26 06:36:58;;;;;;;119.13;62.65;;;6.60;99.90;;;;;;5074992;28;20048;-61
2022/03/26 06:39:24;;;;;;;91.82;53.15;;;6.80;99.90;;;;;;5074739;28;20094;-61
2022/03/26 06:41:50;;;;;;;105.03;58.38;;;7.00;99.90;;;;;;5074720;28;20514;-61
2022/03/26 06:44:15;;;;;;;129.30;68.70;;;7.20;99.90;;;;;;5074636;28;20403;-61
2022/03/26 06:46:41;;;;;;;130.15;69.65;;;7.50;99.90;;;;;;5074975;28;20138;-61
2022/03/26 06:49:08;;;;;;;134.98;72.28;;;7.60;99.90;;;;;;5073331;28;20151;-61
2022/03/26 06:51:35;;;;;;;134.93;72.65;;;7.90;99.90;;;;;;5077719;28;20053;-61
2022/03/26 06:54:01;;;;;;;132.48;69.68;;;8.00;99.90;;;;;;5074379;28;20071;-61
2022/03/26 06:56:26;;;;;;;130.40;67.38;;;8.20;99.90;;;;;;5074514;28;20048;-61
2022/03/26 06:58:52;;;;;;;114.45;66.03;;;8.30;99.90;;;;;;5073252;28;20180;-60
2022/03/26 07:01:18;;;;;;;121.75;62.95;;;8.40;99.90;;;;;;5074495;28;20452;-61
2022/03/26 07:03:43;;;;;;;117.32;63.85;;;8.60;99.90;;;;;;5074492;28;20036;-62
2022/03/26 07:06:09;;;;;;;114.05;64.75;;;8.90;99.90;;;;;;5074452;28;20044;-61
2022/03/26 07:08:35;;;;;;;119.13;64.28;;;9.00;99.90;;;;;;5074522;28;20094;-62
2022/03/26 07:11:01;;;;;;;112.10;62.92;;;9.20;99.90;;;;;;5074102;28;20123;-62
2022/03/26 07:13:27;;;;;;;117.10;63.75;;;9.50;99.90;;;;;;5074321;28;20079;-61
2022/03/26 07:15:52;;;;;;;110.60;61.42;;;9.70;99.90;;;;;;5074195;28;20524;-62
2022/03/26 07:18:18;;;;;;;109.60;63.17;;;9.90;99.90;;;;;;5073829;28;20509;-61
2022/03/26 07:20:44;;;;;;;112.63;61.90;;;10.30;99.90;;;;;;5073891;28;20036;-61
2022/03/26 07:23:09;;;;;;;104.50;58.88;;;10.60;99.90;;;;;;5074176;28;20037;-61
2022/03/26 07:25:35;;;;;;;108.95;60.00;;;11.00;99.90;;;;;;5074099;28;20459;-61
2022/03/26 07:28:01;;;;;;;109.47;62.30;;;11.20;99.90;;;;;;5073663;28;20471;-61
2022/03/26 07:30:27;;;;;;;107.85;62.78;;;11.60;99.90;;;;;;5073624;28;20134;-61
2022/03/26 07:32:53;;;;;;;103.32;59.75;;;11.70;99.90;;;;;;5073749;28;20463;-61
2022/03/26 07:35:18;;;;;;;105.78;60.00;;;11.90;99.90;;;;;;5073676;28;20070;-61
2022/03/26 07:37:44;;;;;;;98.13;56.80;;;12.20;99.90;;;;;;5073702;28;20411;-61
2022/03/26 07:40:10;;;;;;;106.30;58.47;;;12.40;99.90;;;;;;5073466;28;20078;-62
2022/03/26 07:42:36;;;;;;;95.90;56.45;;;12.50;99.90;;;;;;5073370;28;20371;-61
2022/03/26 07:45:03;;;;;;;99.45;56.47;;;12.70;99.90;;;;;;5073421;28;20086;-60
2022/03/26 07:47:29;;;;;;;90.63;55.35;;;12.90;99.90;;;;;;5073608;28;20448;-61
2022/03/26 07:49:55;;;;;;;93.47;54.80;;;13.00;99.90;;;;;;5073304;28;20499;-61
2022/03/26 07:52:21;;;;;;;87.07;54.35;;;13.20;99.90;;;;;;5073239;28;20186;-61
2022/03/26 07:54:47;;;;;;;87.65;52.72;;;13.60;99.90;;;;;;5073060;28;20135;-61
2022/03/26 07:57:13;;;;;;;84.90;50.20;;;13.70;99.90;;;;;;5072996;28;20111;-61
2022/03/26 07:59:38;;;;;;;86.43;50.40;;;14.00;99.90;;;;;;5072980;28;20056;-61
2022/03/26 08:02:04;;;;;;;84.65;50.08;;;14.30;99.90;;;;;;5073160;28;20147;-61
2022/03/26 08:04:30;;;;;;;78.20;49.17;;;14.50;99.90;;;;;;5072927;28;20501;-61
2022/03/26 08:06:55;;;;;;;76.72;46.05;;;14.50;99.90;;;;;;5073046;28;20029;-61
2022/03/26 08:09:21;;;;;;;73.38;44.35;;;14.80;99.90;;;;;;5072861;28;20032;-61
2022/03/26 08:11:47;;;;;;;76.90;47.13;;;15.00;99.90;;;;;;5072676;28;20036;-61
2022/03/26 08:14:13;;;;;;;71.97;44.00;;;15.20;99.90;;;;;;5072759;28;20109;-60
2022/03/26 08:16:39;;;;;;;71.13;44.22;;;15.40;99.90;;;;;;5072817;28;20544;-61
2022/03/26 08:19:05;;;;;;;72.00;45.53;;;15.50;99.90;;;;;;5072724;28;20115;-61
2022/03/26 08:21:32;;;;;;;64.82;42.58;;;15.70;99.90;;;;;;5072730;28;20040;-61
2022/03/26 08:23:58;;;;;;;72.70;46.90;;;15.80;99.90;;;;;;5072615;28;20076;-61
2022/03/26 08:26:26;;;;;;;70.07;43.75;;;15.90;99.90;;;;;;5072483;28;20068;-61
2022/03/26 08:28:53;;;;;;;74.07;45.73;;;16.10;99.90;;;;;;5072384;28;20043;-61
2022/03/26 08:31:22;;;;;;;66.15;44.25;;;16.30;99.90;;;;;;5072685;28;20119;-61
2022/03/26 08:33:49;;;;;;;59.58;40.67;;;16.40;99.90;;;;;;5072349;28;20067;-60
2022/03/26 08:36:16;;;;;;;63.42;42.10;;;16.50;99.90;;;;;;5072460;28;20047;-60
2022/03/26 08:38:44;;;;;;;68.55;41.92;;;16.60;99.90;;;;;;5072207;28;20475;-61
2022/03/26 08:41:11;;;;;;;63.45;41.58;;;16.60;99.90;;;;;;5072140;28;20036;-60
2022/03/26 08:43:36;;;;;;;59.85;40.78;;;16.80;99.90;;;;;;5072435;28;20211;-61
2022/03/26 08:46:02;;;;;;;59.28;39.55;;;16.80;99.90;;;;;;5072303;28;20546;-61
2022/03/26 08:48:28;;;;;;;59.55;40.78;;;17.20;99.90;;;;;;5072176;28;20471;-61
2022/03/26 08:50:54;;;;;;;56.00;40.30;;;17.20;99.90;;;;;;5072423;28;20046;-61
2022/03/26 08:53:19;;;;;;;47.47;35.05;;;17.50;99.90;;;;;;5072133;28;20088;-60
2022/03/26 08:55:47;;;;;;;50.05;35.47;;;17.70;99.90;;;;;;5071921;28;20076;-61
2022/03/26 08:58:14;;;;;;;53.95;37.25;;;17.70;99.90;;;;;;5072250;28;20084;-61
2022/03/26 09:00:40;;;;;;;53.00;39.13;;;17.70;99.90;;;;;;5071844;28;20372;-61
2022/03/26 09:03:05;;;;;;;52.92;37.50;;;17.80;99.90;;;;;;5072111;28;20036;-61
2022/03/26 09:05:31;;;;;;;55.10;38.80;;;18.20;99.90;;;;;;5071956;28;20040;-61
2022/03/26 09:07:57;;;;;;;54.97;38.22;;;18.50;99.90;;;;;;5071866;28;20031;-60
2022/03/26 09:10:22;;;;;;;52.78;36.15;;;18.30;99.90;;;;;;5071722;28;20471;-61
2022/03/26 09:12:48;;;;;;;52.00;37.83;;;18.60;99.90;;;;;;5071546;28;20526;-60
2022/03/26 09:15:15;;;;;;;63.80;39.80;;;18.50;99.90;;;;;;5072131;28;20044;-61
2022/03/26 09:17:41;;;;;;;45.25;34.08;;;18.70;99.90;;;;;;5072046;28;20094;-61
2022/03/26 09:20:08;;;;;;;56.40;37.03;;;19.00;99.90;;;;;;5071950;28;20036;-61
2022/03/26 09:22:35;;;;;;;50.20;34.28;;;19.00;99.90;;;;;;5071767;28;20036;-61
2022/03/26 09:25:02;;;;;;;40.40;29.13;;;18.70;99.90;;;;;;5071628;28;20437;-61
2022/03/26 09:27:28;;;;;;;44.03;28.75;;;18.90;99.90;;;;;;5072028;28;20468;-61
2022/03/26 09:29:54;;;;;;;41.67;27.88;;;19.10;99.90;;;;;;5071578;28;20032;-61
2022/03/26 09:32:20;;;;;;;38.30;27.27;;;19.10;99.90;;;;;;5071574;28;20037;-61
2022/03/26 09:34:46;;;;;;;30.70;21.90;;;19.10;99.90;;;;;;5071782;28;20069;-61
2022/03/26 09:37:12;;;;;;;25.65;20.15;;;19.20;99.90;;;;;;5071492;28;20394;-61
2022/03/26 09:39:38;;;;;;;29.48;21.30;;;19.30;99.90;;;;;;5069916;28;20465;-61
2022/03/26 09:42:05;;;;;;;22.70;15.93;;;19.10;99.90;;;;;;5071665;28;20045;-60
2022/03/26 09:44:32;;;;;;;23.42;17.63;;;19.10;99.90;;;;;;5071606;28;20072;-60
2022/03/26 09:46:58;;;;;;;23.70;17.48;;;18.90;99.90;;;;;;5071353;28;20062;-61
2022/03/26 09:49:24;;;;;;;21.58;17.23;;;18.80;99.90;;;;;;5070268;28;20080;-61
2022/03/26 09:51:54;;;;;;;20.98;16.90;;;18.90;99.90;;;;;;5071414;28;20122;-61
2022/03/26 09:54:25;;;;;;;23.88;17.25;;;18.70;99.90;;;;;;5071040;28;20379;-61
2022/03/26 09:56:50;;;;;;;22.85;15.20;;;18.40;99.90;;;;;;5071362;28;20040;-61
2022/03/26 09:59:20;;;;;;;22.60;16.55;;;18.40;99.90;;;;;;5071502;28;20059;-61
2022/03/26 10:01:46;;;;;;;24.75;18.83;;;18.50;99.90;;;;;;5071603;28;20866;-61
2022/03/26 10:04:15;;;;;;;24.38;17.63;;;18.30;99.90;;;;;;5071289;28;20047;-61
2022/03/26 10:06:48;;;;;;;21.35;13.98;;;18.20;99.90;;;;;;5071563;28;20342;-60
2022/03/26 10:09:24;;;;;;;23.55;15.15;;;18.20;99.90;;;;;;5071338;28;20051;-60
2022/03/26 10:12:16;;;;;;;14.23;10.05;;;18.30;99.90;;;;;;5071351;28;20066;-60
2022/03/26 10:15:08;;;;;;;16.70;9.85;;;18.40;99.90;;;;;;5071174;28;20044;-60
2022/03/26 10:17:36;;;;;;;13.38;10.13;;;18.50;99.90;;;;;;5068449;28;20084;-60
2022/03/26 10:20:08;;;;;;;14.32;10.50;;;18.40;99.90;;;;;;5071318;28;20076;-60
2022/03/26 10:22:34;;;;;;;16.13;11.48;;;18.50;99.90;;;;;;5071058;28;20047;-60
2022/03/26 10:25:12;;;;;;;13.70;9.85;;;18.70;99.90;;;;;;5074771;28;20127;-60
2022/03/26 10:27:40;;;;;;;18.92;12.27;;;18.90;99.90;;;;;;5074713;28;20036;-60
2022/03/26 10:30:07;;;;;;;18.90;12.48;;;18.90;99.90;;;;;;5074764;28;20476;-61
2022/03/26 10:32:41;;;;;;;17.17;11.45;;;19.20;99.90;;;;;;5074828;28;20386;-60
2022/03/26 10:35:19;;;;;;;20.50;14.23;;;19.20;99.90;;;;;;5073465;28;20044;-60
2022/03/26 10:38:02;;;;;;;19.58;13.27;;;19.30;99.90;;;;;;5074612;28;20040;-60
2022/03/26 10:40:36;;;;;;;17.27;11.85;;;19.30;99.90;;;;;;5074543;28;20502;-60
2022/03/26 10:43:14;;;;;;;17.95;10.90;;;19.20;99.90;;;;;;5074612;28;20036;-60
2022/03/26 10:45:49;;;;;;;15.30;8.93;;;19.10;99.90;;;;;;5074446;28;20036;-60
2022/03/26 10:48:22;;;;;;;13.20;7.47;;;19.10;99.90;;;;;;5074444;28;20431;-61
2022/03/26 10:50:53;;;;;;;11.23;6.88;;;18.80;99.90;;;;;;5074788;28;20494;-61
2022/03/26 10:53:19;;;;;;;12.55;6.72;;;18.70;99.90;;;;;;5074293;28;20045;-61
2022/03/26 10:55:44;;;;;;;10.77;7.43;;;18.60;99.90;;;;;;5074349;28;20406;-61
2022/03/26 10:58:10;;;;;;;11.25;7.57;;;18.70;99.90;;;;;;5074213;28;20032;-60
2022/03/26 11:00:36;;;;;;;9.82;7.22;;;18.60;99.90;;;;;;5074252;28;20137;-61
2022/03/26 11:03:02;;;;;;;13.93;6.82;;;18.70;99.90;;;;;;5074375;28;20066;-61
2022/03/26 11:05:30;;;;;;;10.25;6.40;;;18.60;99.90;;;;;;5074373;28;20044;-61
2022/03/26 11:07:56;;;;;;;9.52;7.15;;;18.70;99.90;;;;;;5074572;28;20047;-61
2022/03/26 11:10:25;;;;;;;9.18;6.03;;;18.80;99.90;;;;;;5074504;28;20040;-60
2022/03/26 11:12:52;;;;;;;8.48;6.70;;;18.90;99.90;;;;;;5073956;28;20486;-60
2022/03/26 11:15:33;;;;;;;10.23;6.45;;;19.00;99.90;;;;;;5074146;28;20036;-61
2022/03/26 11:18:10;;;;;;;8.82;6.25;;;19.20;99.90;;;;;;5073895;28;20036;-62
2022/03/26 11:21:22;;;;;;;7.57;5.07;;;19.30;99.90;;;;;;5073817;28;20048;-62
2022/03/26 11:24:02;;;;;;;8.60;4.90;;;19.10;99.90;;;;;;5012090;28;20058;-57
2022/03/26 11:26:36;;;;;;;6.35;4.97;;;19.60;99.90;;;;;;4995706;28;20419;-57
2022/03/26 11:29:19;;;;;;;7.57;4.72;;;21.00;99.90;;;;;;4995726;28;20116;-57
2022/03/26 11:31:57;;;;;;;9.40;5.20;;;22.30;98.40;;;;;;5012171;28;20548;-57
2022/03/26 11:34:23;;;;;;;5.90;4.15;;;23.50;97.50;;;;;;5011645;28;20479;-57
2022/03/26 11:36:51;;;;;;;6.55;4.97;;;23.40;95.80;;;;;;5011786;28;20077;-57
2022/03/26 11:39:19;;;;;;;10.05;4.07;;;22.90;96.50;;;;;;5011892;28;20052;-57
2022/03/26 11:41:46;;;;;;;5.57;4.00;;;23.20;96.10;;;;;;5011720;28;20053;-57
2022/03/26 11:44:15;;;;;;;5.70;3.72;;;22.90;95.20;;;;;;5011944;28;20092;-57
2022/03/26 11:52:34;;;;;;;5.10;3.53;;;23.60;95.00;;;;;;4934209;28;20418;-57
2022/03/26 11:55:18;;;;;;;8.02;4.30;;;24.50;94.40;;;;;;4918086;29;20131;-57
2022/03/26 11:57:44;;;;;;;5.32;4.05;;;23.60;93.40;;;;;;4934006;29;20066;-57
2022/03/26 12:00:18;;;;;;;5.07;3.78;;;23.70;94.40;;;;;;4968840;28;20055;-57
2022/03/26 12:02:49;;;;;;;4.72;3.42;;;23.90;93.50;;;;;;4991655;28;20125;-57
2022/03/26 12:08:17;;;;;;;6.63;3.75;;;23.80;93.60;;;;;;4978297;28;20042;-57
2022/03/26 12:10:44;;;;;;;6.18;4.18;;;22.90;94.10;;;;;;4991588;28;20046;-57
2022/03/26 12:13:18;;;;;;;10.35;5.32;;;23.00;94.50;;;;;;4991656;28;20089;-57
2022/03/26 12:16:05;;;;;;;6.40;4.40;;;22.40;95.20;;;;;;4991534;28;20054;-57
2022/03/26 12:18:39;;;;;;;6.88;3.15;;;22.40;95.60;;;;;;4991521;28;20042;-57
2022/03/26 12:21:09;;;;;;;5.78;3.95;;;22.60;95.60;;;;;;4991661;28;20467;-57
2022/03/26 12:23:35;;;;;;;5.85;3.42;;;22.00;95.90;;;;;;4991290;28;20042;-57
2022/03/26 12:26:03;;;;;;;6.30;3.20;;;21.90;96.00;;;;;;4991327;28;20042;-57
2022/03/26 12:28:28;;;;;;;7.82;4.32;;;21.60;96.30;;;;;;5017551;28;20049;-57
2022/03/26 12:30:56;;;;;;;3.92;3.17;;;21.40;96.50;;;;;;5072878;28;20090;-57
2022/03/26 12:33:23;;;;;;;4.78;3.35;;;21.00;96.80;;;;;;5072940;28;20115;-57
2022/03/26 12:35:52;;;;;;;6.28;3.10;;;20.80;97.30;;;;;;5072730;28;20044;-57
2022/03/26 12:38:19;;;;;;;5.68;3.67;;;20.80;97.80;;;;;;5072541;28;20094;-57
2022/03/26 12:40:57;;;;;;;5.57;3.55;;;20.30;97.90;;;;;;5071387;28;20032;-57